Time;durP1;ratioP1;P1;durP2;ratioP2;P2;SDS_P1;SDS_P2;PMS_P1;PMS_P2;Temp;Humidity;BMP_temperature;BMP_pressure;BME280_temperature;BME280_humidity;BME280_pressure;Samples;Min_cycle;Max_cycle;Signal;HPM_P1;HPM_P2
2021/07/09 00:01:09;;;;;;;;;;;;;;;27.33;67.89;100384.74;1703406;82;20450;-80
2021/07/09 00:03:35;;;;;;;;;;;;;;;27.33;67.90;100373.06;1707000;82;20181;-82
2021/07/09 00:06:00;;;;;;;;;;;;;;;27.32;67.90;100361.95;1713508;82;20166;-79
2021/07/09 00:08:26;;;;;;;;;;;;;;;27.37;67.67;100360.62;1710757;82;20452;-81
2021/07/09 00:10:51;;;;;;;;;;;;;;;27.28;67.75;100364.88;1704997;82;21084;-84
2021/07/09 00:13:17;;;;;;;;;;;;;;;27.29;67.74;100367.88;1707531;82;20154;-82
2021/07/09 00:15:43;;;;;;;;;;;;;;;27.35;67.78;100365.50;1705620;82;20130;-79
2021/07/09 00:18:08;;;;;;;;;;;;;;;27.32;67.89;100360.59;1695372;82;20628;-78
2021/07/09 00:20:34;;;;;;;;;;;;;;;27.38;67.73;100351.41;1709452;82;20158;-80
2021/07/09 00:23:00;;;;;;;;;;;;;;;27.37;67.77;100349.77;1705253;82;21064;-80
2021/07/09 00:25:25;;;;;;;;;;;;;;;27.32;68.01;100344.33;1705682;82;20979;-79
2021/07/09 00:27:51;;;;;;;;;;;;;;;27.41;67.63;100334.61;1715722;82;20146;-80
2021/07/09 00:30:16;;;;;;;;;;;;;;;27.40;67.59;100330.26;1717223;83;20236;-78
2021/07/09 00:32:42;;;;;;;;;;;;;;;27.35;67.66;100322.11;1717445;82;20213;-79
2021/07/09 00:35:08;;;;;;;;;;;;;;;27.28;67.83;100313.35;1705045;82;21098;-79
2021/07/09 00:37:34;;;;;;;;;;;;;;;27.31;67.67;100319.09;1715602;82;20450;-81
2021/07/09 00:40:01;;;;;;;;;;;;;;;27.31;67.51;100320.95;1718801;82;20150;-78
2021/07/09 00:42:27;;;;;;;;;;;;;;;27.30;67.65;100323.39;1716863;83;20174;-78
2021/07/09 00:44:52;;;;;;;;;;;;;;;27.30;67.71;100322.03;1706509;82;20492;-79
2021/07/09 00:47:18;;;;;;;;;;;;;;;27.26;67.80;100318.23;1716853;82;21881;-81
2021/07/09 00:49:45;;;;;;;;;;;;;;;27.26;67.68;100319.04;1705384;83;20166;-80
2021/07/09 00:52:10;;;;;;;;;;;;;;;27.25;67.71;100314.69;1714617;82;20244;-80
2021/07/09 00:54:36;;;;;;;;;;;;;;;27.26;67.64;100312.26;1698208;82;20130;-80
2021/07/09 00:57:02;;;;;;;;;;;;;;;27.13;67.98;100310.84;1717807;82;20098;-80
2021/07/09 00:59:27;;;;;;;;;;;;;;;27.20;67.67;100306.53;1717114;82;21135;-80
2021/07/09 01:01:53;;;;;;;;;;;;;;;27.13;67.82;100301.36;1713289;82;20138;-80
2021/07/09 01:04:20;;;;;;;;;;;;;;;27.11;67.79;100308.92;1697190;82;20139;-79
2021/07/09 01:06:46;;;;;;;;;;;;;;;27.17;67.75;100322.78;1701048;83;20547;-80
2021/07/09 01:09:12;;;;;;;;;;;;;;;27.21;67.67;100351.00;1717165;82;20529;-80
2021/07/09 01:11:37;;;;;;;;;;;;;;;26.45;69.62;100465.78;1714316;82;21107;-78
2021/07/09 01:14:05;;;;;;;;;;;;;;;25.89;73.33;100469.14;1710431;82;20205;-80
2021/07/09 01:16:30;;;;;;;;;;;;;;;25.80;74.19;100477.67;1709001;82;20496;-78
2021/07/09 01:18:56;;;;;;;;;;;;;;;25.77;74.38;100464.64;1692595;83;20150;-80
2021/07/09 01:21:21;;;;;;;;;;;;;;;26.00;71.97;100460.11;1699856;82;20169;-80
2021/07/09 01:23:47;;;;;;;;;;;;;;;26.03;70.92;100505.63;1710192;82;21095;-78
2021/07/09 01:26:12;;;;;;;;;;;;;;;26.23;70.61;100509.67;1705699;82;20435;-80
2021/07/09 01:28:38;;;;;;;;;;;;;;;26.26;71.05;100515.94;1710424;82;20142;-77
2021/07/09 01:31:06;;;;;;;;;;;;;;;25.93;71.48;100550.09;1702974;82;20217;-80
2021/07/09 01:33:31;;;;;;;;;;;;;;;26.06;71.34;100529.48;1714285;82;20124;-78
2021/07/09 01:35:57;;;;;;;;;;;;;;;25.97;71.95;100537.71;1703200;82;21794;-79
2021/07/09 01:38:22;;;;;;;;;;;;;;;25.77;71.52;100551.21;1712880;82;20199;-79
2021/07/09 01:40:48;;;;;;;;;;;;;;;25.78;71.77;100547.45;1710090;82;20583;-80
2021/07/09 01:43:13;;;;;;;;;;;;;;;25.76;71.57;100541.48;1697230;82;20631;-78
2021/07/09 01:45:39;;;;;;;;;;;;;;;25.87;71.37;100533.49;1720162;82;20144;-80
2021/07/09 01:48:05;;;;;;;;;;;;;;;25.87;70.41;100537.04;1706930;82;21110;-78
2021/07/09 01:50:30;;;;;;;;;;;;;;;26.13;70.42;100519.30;1708335;82;21167;-79
2021/07/09 01:52:57;;;;;;;;;;;;;;;25.91;70.24;100521.12;1698280;82;20150;-79
2021/07/09 01:55:22;;;;;;;;;;;;;;;25.62;69.88;100479.30;1697616;83;20832;-79
2021/07/09 01:57:48;;;;;;;;;;;;;;;25.94;68.92;100478.13;1710407;82;20201;-79
2021/07/09 02:00:15;;;;;;;;;;;;;;;25.80;68.41;100502.02;1715833;83;21183;-79
2021/07/09 02:02:41;;;;;;;;;;;;;;;25.69;68.54;100484.02;1708185;82;20151;-77
2021/07/09 02:05:09;;;;;;;;;;;;;;;25.57;68.38;100471.13;1698480;82;20145;-79
2021/07/09 02:07:34;;;;;;;;;;;;;;;25.85;67.62;100454.47;1697335;83;20170;-80
2021/07/09 02:10:00;;;;;;;;;;;;;;;25.68;67.56;100455.31;1697335;83;20130;-78
2021/07/09 02:12:26;;;;;;;;;;;;;;;25.86;67.22;100464.23;1703184;82;20965;-78
2021/07/09 02:14:52;;;;;;;;;;;;;;;26.00;67.07;100455.25;1715785;82;20155;-79
2021/07/09 02:17:19;;;;;;;;;;;;;;;26.04;67.52;100447.73;1714677;83;20199;-78
2021/07/09 02:19:45;;;;;;;;;;;;;;;26.27;66.47;100429.56;1694399;83;20473;-79
2021/07/09 02:22:12;;;;;;;;;;;;;;;26.35;66.17;100426.39;1712926;83;20255;-79
2021/07/09 02:24:44;;;;;;;;;;;;;;;26.33;66.00;100447.50;1701469;82;21070;-78
2021/07/09 02:27:10;;;;;;;;;;;;;;;26.40;66.29;100445.42;1708760;82;20110;-78
2021/07/09 02:29:36;;;;;;;;;;;;;;;26.33;65.69;100433.96;1708368;83;20185;-78
2021/07/09 02:32:04;;;;;;;;;;;;;;;26.36;65.79;100429.39;1712891;82;20596;-78
2021/07/09 02:34:30;;;;;;;;;;;;;;;26.44;65.63;100437.59;1701960;83;20207;-79
2021/07/09 02:36:56;;;;;;;;;;;;;;;26.55;65.16;100450.71;1713703;82;21908;-78
2021/07/09 02:39:24;;;;;;;;;;;;;;;26.57;64.97;100441.78;1703239;82;20094;-79
2021/07/09 02:41:50;;;;;;;;;;;;;;;26.48;65.32;100438.73;1711811;83;20503;-79
2021/07/09 02:44:15;;;;;;;;;;;;;;;26.51;65.13;100428.75;1705307;82;20145;-80
2021/07/09 02:46:41;;;;;;;;;;;;;;;26.52;65.24;100416.82;1699871;82;20467;-79
2021/07/09 02:49:06;;;;;;;;;;;;;;;26.42;65.51;100410.77;1712617;82;21899;-79
2021/07/09 02:51:32;;;;;;;;;;;;;;;26.49;66.08;100409.20;1700788;83;20122;-79
2021/07/09 02:53:58;;;;;;;;;;;;;;;26.47;65.79;100388.34;1702867;82;20152;-79
2021/07/09 02:56:23;;;;;;;;;;;;;;;26.44;66.28;100384.25;1715155;82;20152;-80
2021/07/09 02:58:49;;;;;;;;;;;;;;;26.41;66.24;100376.63;1702349;82;20211;-79
2021/07/09 03:01:14;;;;;;;;;;;;;;;26.50;66.26;100373.74;1712798;82;21181;-78
2021/07/09 03:03:40;;;;;;;;;;;;;;;26.33;66.62;100363.56;1706857;82;20198;-77
2021/07/09 03:06:06;;;;;;;;;;;;;;;26.18;67.14;100355.29;1716469;82;20214;-78
2021/07/09 03:08:31;;;;;;;;;;;;;;;26.09;67.54;100353.05;1715007;82;20572;-78
2021/07/09 03:10:57;;;;;;;;;;;;;;;26.08;67.71;100355.47;1708965;82;20179;-80
2021/07/09 03:13:22;;;;;;;;;;;;;;;26.11;67.80;100356.31;1701902;82;21180;-80
2021/07/09 03:15:48;;;;;;;;;;;;;;;26.17;67.74;100360.45;1713149;82;20372;-82
2021/07/09 03:18:13;;;;;;;;;;;;;;;26.15;67.71;100372.87;1711908;82;20149;-78
2021/07/09 03:20:39;;;;;;;;;;;;;;;26.22;67.41;100372.67;1702276;83;20134;-82
2021/07/09 03:23:04;;;;;;;;;;;;;;;26.28;67.38;100356.21;1716902;82;20155;-81
2021/07/09 03:25:30;;;;;;;;;;;;;;;26.19;67.63;100356.94;1717462;82;21132;-82
2021/07/09 03:27:56;;;;;;;;;;;;;;;26.15;68.00;100345.81;1707895;82;20303;-81
2021/07/09 03:30:21;;;;;;;;;;;;;;;26.17;68.22;100329.31;1708237;82;20839;-81
2021/07/09 03:32:47;;;;;;;;;;;;;;;26.07;68.47;100324.08;1706010;82;20523;-82
2021/07/09 03:35:15;;;;;;;;;;;;;;;26.08;68.67;100320.28;1699716;82;20135;-82
2021/07/09 03:37:40;;;;;;;;;;;;;;;26.04;69.12;100317.82;1701362;82;21133;-81
2021/07/09 03:40:07;;;;;;;;;;;;;;;26.14;68.96;100310.33;1705047;82;20262;-80
2021/07/09 03:42:33;;;;;;;;;;;;;;;26.21;67.99;100315.53;1697957;82;20180;-83
2021/07/09 03:44:58;;;;;;;;;;;;;;;26.15;68.03;100308.72;1703269;82;20123;-82
2021/07/09 03:47:24;;;;;;;;;;;;;;;26.24;67.75;100308.25;1711445;83;20813;-79
2021/07/09 03:49:49;;;;;;;;;;;;;;;26.23;67.96;100305.28;1711853;83;21997;-80
2021/07/09 03:52:15;;;;;;;;;;;;;;;26.38;67.25;100294.56;1713198;82;20165;-82
2021/07/09 03:54:41;;;;;;;;;;;;;;;26.50;67.44;100292.49;1702508;82;20200;-82
2021/07/09 03:57:06;;;;;;;;;;;;;;;26.48;67.02;100289.78;1706573;82;20165;-82
2021/07/09 03:59:32;;;;;;;;;;;;;;;26.44;67.10;100290.02;1694564;83;21125;-81
2021/07/09 04:01:58;;;;;;;;;;;;;;;26.48;67.46;100288.44;1711557;82;21084;-79
2021/07/09 04:04:23;;;;;;;;;;;;;;;26.49;66.96;100277.86;1716221;82;20199;-80
2021/07/09 04:06:49;;;;;;;;;;;;;;;26.54;66.86;100287.39;1708769;82;20236;-82
2021/07/09 04:09:16;;;;;;;;;;;;;;;26.55;66.59;100282.78;1712773;82;20446;-83
2021/07/09 04:11:42;;;;;;;;;;;;;;;26.66;66.47;100273.68;1711287;82;20146;-82
2021/07/09 04:14:07;;;;;;;;;;;;;;;26.66;66.33;100270.97;1702269;83;21376;-82
2021/07/09 04:16:33;;;;;;;;;;;;;;;26.72;66.61;100261.00;1713937;82;20920;-82
2021/07/09 04:18:58;;;;;;;;;;;;;;;26.78;65.79;100250.47;1699242;82;20281;-79
2021/07/09 04:21:24;;;;;;;;;;;;;;;26.79;66.05;100258.89;1704101;82;20530;-81
2021/07/09 04:23:50;;;;;;;;;;;;;;;26.80;65.99;100254.56;1704711;82;20152;-83
2021/07/09 04:26:15;;;;;;;;;;;;;;;26.90;66.23;100252.98;1710776;82;21932;-81
2021/07/09 04:28:44;;;;;;;;;;;;;;;26.92;65.65;100254.89;1704632;82;20266;-78
2021/07/09 04:31:09;;;;;;;;;;;;;;;26.96;65.70;100250.59;1705362;82;20176;-80
2021/07/09 04:33:38;;;;;;;;;;;;;;;27.00;65.16;100250.31;1703096;82;20148;-81
2021/07/09 04:36:03;;;;;;;;;;;;;;;27.09;65.16;100256.87;1692230;83;20163;-81
2021/07/09 04:38:29;;;;;;;;;;;;;;;27.22;65.23;100260.47;1701795;82;21182;-81
2021/07/09 04:40:55;;;;;;;;;;;;;;;27.22;64.80;100252.33;1698203;82;20225;-81
2021/07/09 04:43:20;;;;;;;;;;;;;;;27.25;64.58;100246.09;1704785;82;20134;-81
2021/07/09 04:45:46;;;;;;;;;;;;;;;27.28;65.06;100238.78;1712025;82;20486;-80
2021/07/09 04:48:11;;;;;;;;;;;;;;;27.34;64.22;100237.75;1710068;82;20118;-81
2021/07/09 04:50:37;;;;;;;;;;;;;;;27.35;63.97;100232.62;1710041;82;21171;-80
2021/07/09 04:53:03;;;;;;;;;;;;;;;27.41;63.79;100228.84;1704462;82;20151;-81
2021/07/09 04:55:29;;;;;;;;;;;;;;;27.42;63.68;100227.73;1658631;83;20251;-80
2021/07/09 04:57:56;;;;;;;;;;;;;;;27.56;63.35;100237.02;1695883;82;20644;-79
2021/07/09 05:00:22;;;;;;;;;;;;;;;27.67;63.10;100227.53;1677428;83;20214;-80
2021/07/09 05:02:47;;;;;;;;;;;;;;;27.75;62.90;100232.45;1705901;82;21086;-81
2021/07/09 05:05:15;;;;;;;;;;;;;;;27.86;62.41;100231.38;1712949;82;20462;-80
2021/07/09 05:07:41;;;;;;;;;;;;;;;27.99;62.13;100236.03;1701920;83;20182;-81
2021/07/09 05:10:07;;;;;;;;;;;;;;;28.16;61.74;100236.58;1706908;82;20171;-79
2021/07/09 05:12:33;;;;;;;;;;;;;;;28.15;61.38;100236.84;1705872;82;22044;-78
2021/07/09 05:14:58;;;;;;;;;;;;;;;28.22;61.43;100238.20;1702120;82;21038;-79
2021/07/09 05:17:24;;;;;;;;;;;;;;;28.22;61.34;100236.84;1698497;83;20140;-80
2021/07/09 05:19:52;;;;;;;;;;;;;;;28.28;61.07;100239.83;1702319;82;20245;-81
2021/07/09 05:22:22;;;;;;;;;;;;;;;28.36;60.86;100234.95;1706912;82;20206;-80
2021/07/09 05:24:48;;;;;;;;;;;;;;;28.38;60.70;100238.20;1709330;82;20173;-80
2021/07/09 05:27:15;;;;;;;;;;;;;;;28.48;60.88;100234.13;1697329;82;21092;-80
2021/07/09 05:29:41;;;;;;;;;;;;;;;28.48;60.37;100225.42;1694690;83;20169;-78
2021/07/09 05:32:07;;;;;;;;;;;;;;;28.58;60.74;100221.89;1705833;83;20248;-80
2021/07/09 05:34:34;;;;;;;;;;;;;;;28.64;60.44;100213.20;1715401;82;20700;-79
2021/07/09 05:37:00;;;;;;;;;;;;;;;28.59;60.72;100208.59;1703429;82;20236;-79
2021/07/09 05:39:26;;;;;;;;;;;;;;;28.70;60.67;100197.67;1703277;82;21077;-78
2021/07/09 05:41:52;;;;;;;;;;;;;;;28.78;60.40;100195.22;1710129;82;20143;-82
2021/07/09 05:44:17;;;;;;;;;;;;;;;28.77;60.89;100192.77;1700749;82;20149;-83
2021/07/09 05:46:43;;;;;;;;;;;;;;;28.98;60.55;100197.05;1699199;82;20408;-82
2021/07/09 05:49:08;;;;;;;;;;;;;;;28.98;60.76;100198.41;1706877;82;20138;-80
2021/07/09 05:51:34;;;;;;;;;;;;;;;28.97;60.88;100191.33;1694806;83;21130;-81
2021/07/09 05:53:59;;;;;;;;;;;;;;;29.12;60.55;100196.46;1717898;83;20158;-80
2021/07/09 05:56:25;;;;;;;;;;;;;;;29.17;60.61;100201.31;1707641;82;20189;-78
2021/07/09 05:58:51;;;;;;;;;;;;;;;29.24;60.78;100199.70;1713708;82;20418;-80
2021/07/09 06:01:16;;;;;;;;;;;;;;;29.07;61.13;100201.90;1710113;82;20165;-80
2021/07/09 06:03:42;;;;;;;;;;;;;;;29.17;60.54;100195.06;1695883;82;21150;-80
2021/07/09 06:06:08;;;;;;;;;;;;;;;29.28;60.43;100197.22;1692367;83;20264;-78
2021/07/09 06:08:33;;;;;;;;;;;;;;;29.27;59.99;100205.11;1696389;83;20449;-82
2021/07/09 06:10:59;;;;;;;;;;;;;;;29.46;59.60;100212.90;1692069;83;20579;-79
2021/07/09 06:13:24;;;;;;;;;;;;;;;29.40;59.58;100214.55;1706233;82;20174;-83
2021/07/09 06:15:50;;;;;;;;;;;;;;;29.56;59.67;100221.54;1705426;82;21941;-85
2021/07/09 06:18:15;;;;;;;;;;;;;;;29.70;59.54;100223.89;1714347;83;20158;-79
2021/07/09 06:20:41;;;;;;;;;;;;;;;29.71;59.50;100229.61;1699078;82;20170;-80
2021/07/09 06:23:07;;;;;;;;;;;;;;;29.81;59.04;100244.28;1708843;82;20155;-82
2021/07/09 06:25:32;;;;;;;;;;;;;;;29.87;59.02;100248.59;1692897;83;20601;-83
2021/07/09 06:27:58;;;;;;;;;;;;;;;29.99;58.76;100250.41;1702501;82;21267;-80
2021/07/09 06:30:24;;;;;;;;;;;;;;;30.08;59.16;100247.34;1714548;82;20157;-82
2021/07/09 06:32:49;;;;;;;;;;;;;;;30.13;58.51;100257.92;1700624;83;20474;-83
2021/07/09 06:35:15;;;;;;;;;;;;;;;30.18;58.32;100256.54;1716390;82;20122;-82
2021/07/09 06:37:40;;;;;;;;;;;;;;;30.36;58.16;100255.84;1708968;82;20467;-81
2021/07/09 06:40:07;;;;;;;;;;;;;;;30.47;57.86;100253.87;1704013;82;22632;-79
2021/07/09 06:42:33;;;;;;;;;;;;;;;30.47;57.62;100255.76;1716425;82;20099;-79
2021/07/09 06:45:00;;;;;;;;;;;;;;;30.55;57.67;100253.23;1694299;82;20156;-81
2021/07/09 06:47:26;;;;;;;;;;;;;;;30.55;57.37;100249.70;1700180;83;20120;-78
2021/07/09 06:49:51;;;;;;;;;;;;;;;30.54;56.44;100255.69;1710073;82;20216;-80
2021/07/09 06:52:17;;;;;;;;;;;;;;;30.52;56.57;100258.45;1714136;82;21111;-80
2021/07/09 06:54:43;;;;;;;;;;;;;;;30.55;56.99;100257.88;1701260;82;20179;-78
2021/07/09 06:57:08;;;;;;;;;;;;;;;30.55;56.83;100257.88;1699575;82;20137;-81
2021/07/09 06:59:34;;;;;;;;;;;;;;;30.57;57.02;100265.21;1717397;82;20150;-79
2021/07/09 07:01:59;;;;;;;;;;;;;;;30.58;57.15;100268.21;1714744;82;20314;-78
2021/07/09 07:04:25;;;;;;;;;;;;;;;30.66;57.15;100270.30;1692677;83;21146;-78
2021/07/09 07:06:52;;;;;;;;;;;;;;;30.62;56.99;100271.97;1703070;82;20154;-81
2021/07/09 07:09:17;;;;;;;;;;;;;;;30.60;56.94;100263.27;1705863;82;20178;-80
2021/07/09 07:11:43;;;;;;;;;;;;;;;30.61;57.16;100256.73;1710178;82;20209;-78
2021/07/09 07:14:09;;;;;;;;;;;;;;;30.71;57.39;100256.61;1697448;83;20727;-79
2021/07/09 07:16:34;;;;;;;;;;;;;;;30.63;57.47;100266.78;1700806;82;22515;-77
2021/07/09 07:19:00;;;;;;;;;;;;;;;30.46;57.42;100278.67;1701523;82;20155;-78
2021/07/09 07:21:25;;;;;;;;;;;;;;;30.59;57.20;100274.73;1708067;83;20144;-78
2021/07/09 07:23:51;;;;;;;;;;;;;;;30.69;57.15;100272.45;1697973;82;20600;-80
2021/07/09 07:26:18;;;;;;;;;;;;;;;30.83;56.63;100256.78;1710943;82;20202;-81
2021/07/09 07:28:44;;;;;;;;;;;;;;;30.90;57.04;100244.96;1709466;82;21090;-82
2021/07/09 07:31:09;;;;;;;;;;;;;;;31.05;57.06;100244.81;1694434;82;20158;-80
2021/07/09 07:33:36;;;;;;;;;;;;;;;31.18;56.55;100257.48;1699399;83;21001;-80
2021/07/09 07:36:02;;;;;;;;;;;;;;;31.15;55.84;100262.97;1705857;83;20230;-80
2021/07/09 07:38:27;;;;;;;;;;;;;;;31.12;55.50;100261.66;1705055;82;20739;-79
2021/07/09 07:40:53;;;;;;;;;;;;;;;31.09;55.44;100250.48;1709464;82;21176;-80
2021/07/09 07:43:18;;;;;;;;;;;;;;;31.21;55.55;100250.08;1693202;83;20138;-79
2021/07/09 07:45:44;;;;;;;;;;;;;;;31.35;55.88;100238.70;1718334;82;20154;-79
2021/07/09 07:48:10;;;;;;;;;;;;;;;31.27;56.24;100244.82;1703290;82;20177;-77
2021/07/09 07:50:36;;;;;;;;;;;;;;;31.41;56.30;100249.81;1702103;82;20211;-82
2021/07/09 07:53:03;;;;;;;;;;;;;;;31.46;56.12;100259.31;1697060;82;21332;-85
2021/07/09 07:55:29;;;;;;;;;;;;;;;31.52;55.72;100260.59;1708161;82;20741;-78
2021/07/09 07:57:55;;;;;;;;;;;;;;;31.55;55.98;100268.23;1698121;82;20211;-79
2021/07/09 08:00:21;;;;;;;;;;;;;;;31.62;55.79;100266.77;1695288;83;20152;-78
2021/07/09 08:02:47;;;;;;;;;;;;;;;31.65;55.37;100267.53;1709465;82;20245;-81
2021/07/09 08:05:13;;;;;;;;;;;;;;;31.73;54.81;100255.67;1714859;82;21130;-81
2021/07/09 08:07:38;;;;;;;;;;;;;;;31.88;54.94;100256.81;1716027;82;20810;-82
2021/07/09 08:10:05;;;;;;;;;;;;;;;31.98;54.86;100246.30;1702928;82;20268;-79
2021/07/09 08:12:30;;;;;;;;;;;;;;;32.04;54.35;100244.55;1703140;83;20233;-80
2021/07/09 08:14:56;;;;;;;;;;;;;;;32.18;54.35;100242.45;1705725;82;20772;-79
2021/07/09 08:17:22;;;;;;;;;;;;;;;32.20;54.39;100237.49;1713295;82;21108;-81
2021/07/09 08:19:47;;;;;;;;;;;;;;;32.23;54.47;100244.30;1698794;82;20859;-82
2021/07/09 08:22:13;;;;;;;;;;;;;;;32.35;53.96;100247.36;1687965;83;20153;-81
2021/07/09 08:24:39;;;;;;;;;;;;;;;32.46;54.26;100251.53;1716206;82;20190;-79
2021/07/09 08:27:04;;;;;;;;;;;;;;;32.50;53.38;100247.06;1715607;82;20195;-81
2021/07/09 08:29:30;;;;;;;;;;;;;;;32.49;54.12;100245.46;1681324;83;21144;-83
2021/07/09 08:31:58;;;;;;;;;;;;;;;32.54;53.29;100245.36;1705423;82;20269;-81
2021/07/09 08:34:23;;;;;;;;;;;;;;;32.58;52.90;100237.35;1706083;82;20162;-81
2021/07/09 08:36:49;;;;;;;;;;;;;;;32.48;52.80;100236.99;1702709;82;20467;-80
2021/07/09 08:39:15;;;;;;;;;;;;;;;32.48;52.66;100238.36;1701916;82;20197;-81
2021/07/09 08:41:44;;;;;;;;;;;;;;;32.48;52.80;100227.42;1696303;83;21075;-81
2021/07/09 08:44:11;;;;;;;;;;;;;;;32.53;52.88;100230.05;1694097;82;20181;-78
2021/07/09 08:46:37;;;;;;;;;;;;;;;32.51;53.21;100226.82;1699332;83;20206;-78
2021/07/09 08:49:02;;;;;;;;;;;;;;;32.50;53.39;100226.56;1702027;82;20237;-82
2021/07/09 08:51:28;;;;;;;;;;;;;;;32.45;53.99;100220.39;1715010;82;20434;-80
2021/07/09 08:53:53;;;;;;;;;;;;;;;32.56;54.35;100213.05;1706735;82;21123;-80
2021/07/09 08:56:20;;;;;;;;;;;;;;;32.58;54.52;100211.38;1708014;82;20210;-81
2021/07/09 08:58:46;;;;;;;;;;;;;;;32.56;54.60;100211.68;1707216;82;20206;-81
2021/07/09 09:01:13;;;;;;;;;;;;;;;32.63;54.54;100216.77;1701839;82;20194;-81
2021/07/09 09:03:38;;;;;;;;;;;;;;;32.58;54.50;100218.22;1701051;82;20188;-81
2021/07/09 09:06:04;;;;;;;;;;;;;;;32.55;53.25;100223.75;1699837;82;21145;-81
2021/07/09 09:08:32;;;;;;;;;;;;;;;32.31;52.90;100220.37;1702359;82;20140;-82
2021/07/09 09:10:58;;;;;;;;;;;;;;;32.52;53.00;100217.52;1709899;82;20612;-81
2021/07/09 09:13:26;;;;;;;;;;;;;;;32.54;53.41;100230.89;1715341;82;20172;-81
2021/07/09 09:16:00;;;;;;;;;;;;;;;32.62;53.65;100226.64;1714053;82;20611;-81
2021/07/09 09:18:32;;;;;;;;;;;;;;;32.73;53.39;100232.19;1712048;82;21363;-81
2021/07/09 09:21:01;;;;;;;;;;;;;;;32.61;52.24;100225.02;1709008;82;20238;-80
2021/07/09 09:23:27;;;;;;;;;;;;;;;32.64;52.36;100221.67;1711629;82;20359;-82
2021/07/09 09:25:53;;;;;;;;;;;;;;;32.54;53.16;100211.19;1708133;82;20256;-81
2021/07/09 09:28:18;;;;;;;;;;;;;;;32.54;52.30;100212.55;1711451;82;20238;-82
2021/07/09 09:30:45;;;;;;;;;;;;;;;32.60;52.69;100213.28;1716068;82;21009;-81
2021/07/09 09:33:12;;;;;;;;;;;;;;;32.79;52.60;100217.30;1706105;82;20264;-80
2021/07/09 09:35:47;;;;;;;;;;;;;;;32.95;52.51;100213.70;1694719;82;20167;-82
2021/07/09 09:38:15;;;;;;;;;;;;;;;32.99;52.38;100211.18;1701773;83;20126;-81
2021/07/09 09:40:43;;;;;;;;;;;;;;;33.00;51.83;100212.78;1706877;82;20208;-79
2021/07/09 09:43:10;;;;;;;;;;;;;;;33.13;52.09;100213.33;1704428;83;20787;-80
2021/07/09 09:45:36;;;;;;;;;;;;;;;33.15;51.70;100205.62;1704494;83;21147;-79
2021/07/09 09:48:11;;;;;;;;;;;;;;;33.21;51.40;100198.95;1707665;82;20196;-80
2021/07/09 09:50:47;;;;;;;;;;;;;;;33.15;51.35;100200.14;1704503;82;20512;-79
2021/07/09 09:53:12;;;;;;;;;;;;;;;33.14;51.20;100202.62;1698267;83;20159;-80
2021/07/09 09:55:38;;;;;;;;;;;;;;;33.07;51.46;100197.57;1698523;82;21956;-81
2021/07/09 09:58:18;;;;;;;;;;;;;;;33.17;51.28;100193.80;1699384;83;20850;-80
2021/07/09 10:00:49;;;;;;;;;;;;;;;33.18;51.41;100189.98;1702601;83;20182;-78
2021/07/09 10:03:15;;;;;;;;;;;;;;;32.97;50.87;100196.44;1703481;83;20175;-78
2021/07/09 10:05:43;;;;;;;;;;;;;;;33.10;50.45;100196.96;1708331;83;20162;-79
2021/07/09 10:08:13;;;;;;;;;;;;;;;32.99;50.20;100195.56;1704454;83;21081;-79
2021/07/09 10:10:40;;;;;;;;;;;;;;;33.03;50.31;100197.13;1669331;83;38781;-79
2021/07/09 10:13:06;;;;;;;;;;;;;;;33.04;50.45;100204.22;1704537;83;20186;-80
2021/07/09 10:15:31;;;;;;;;;;;;;;;33.23;50.59;100200.81;1705257;82;20186;-77
2021/07/09 10:17:58;;;;;;;;;;;;;;;33.21;50.21;100196.21;1697517;82;20288;-77
2021/07/09 10:20:24;;;;;;;;;;;;;;;33.21;49.64;100197.58;1700824;82;21049;-79
2021/07/09 10:22:50;;;;;;;;;;;;;;;33.28;50.17;100194.41;1701820;82;20095;-80
2021/07/09 10:25:16;;;;;;;;;;;;;;;33.34;50.13;100197.86;1706310;82;20133;-82
2021/07/09 10:27:43;;;;;;;;;;;;;;;33.49;49.79;100203.55;1709050;82;20908;-79
2021/07/09 10:30:09;;;;;;;;;;;;;;;33.39;50.03;100199.10;1714813;82;20148;-80
2021/07/09 10:32:39;;;;;;;;;;;;;;;33.18;50.16;100203.66;1706300;82;21201;-77
2021/07/09 10:35:06;;;;;;;;;;;;;;;33.23;49.89;100206.28;1702788;82;20471;-79
2021/07/09 10:37:32;;;;;;;;;;;;;;;33.30;50.42;100211.90;1690838;83;20835;-80
2021/07/09 10:40:10;;;;;;;;;;;;;;;33.33;50.73;100211.28;1704691;82;20116;-81
2021/07/09 10:42:42;;;;;;;;;;;;;;;33.34;50.62;100209.60;1695521;82;20123;-78
2021/07/09 10:45:11;;;;;;;;;;;;;;;33.31;50.42;100208.85;1702378;82;21092;-78
2021/07/09 10:47:42;;;;;;;;;;;;;;;33.40;50.08;100196.63;1709043;83;20288;-79
2021/07/09 10:50:09;;;;;;;;;;;;;;;33.53;50.29;100193.05;1710734;82;20160;-77
2021/07/09 10:52:57;;;;;;;;;;;;;;;33.54;49.69;100183.69;1707646;82;20183;-78
2021/07/09 10:55:29;;;;;;;;;;;;;;;33.50;48.81;100182.71;1707009;82;20151;-77
2021/07/09 10:58:20;;;;;;;;;;;;;;;33.50;49.08;100178.61;1710430;82;21026;-78
2021/07/09 11:01:06;;;;;;;;;;;;;;;33.58;49.14;100179.80;1705615;82;20529;-80
2021/07/09 11:03:53;;;;;;;;;;;;;;;33.57;48.78;100176.22;1703964;83;20115;-78
2021/07/09 11:06:20;;;;;;;;;;;;;;;33.63;48.63;100172.24;1712411;82;20588;-79
2021/07/09 11:08:50;;;;;;;;;;;;;;;33.80;48.50;100178.44;1702158;82;20575;-78
2021/07/09 11:11:30;;;;;;;;;;;;;;;33.94;48.74;100167.41;1702497;83;20194;-76
2021/07/09 11:14:00;;;;;;;;;;;;;;;34.04;47.99;100158.68;1706975;82;21036;-79
2021/07/09 11:16:32;;;;;;;;;;;;;;;34.20;48.46;100147.57;1702441;82;20190;-78
2021/07/09 11:19:04;;;;;;;;;;;;;;;34.29;48.26;100148.45;1709426;83;20938;-81
2021/07/09 11:21:35;;;;;;;;;;;;;;;34.31;47.40;100146.19;1703889;82;20182;-78
2021/07/09 11:24:04;;;;;;;;;;;;;;;34.40;47.63;100139.92;1709402;82;21177;-77
2021/07/09 11:26:30;;;;;;;;;;;;;;;34.40;48.12;100138.55;1708904;82;20798;-78
2021/07/09 11:28:59;;;;;;;;;;;;;;;34.49;48.43;100132.53;1712623;82;20672;-78
2021/07/09 11:31:37;;;;;;;;;;;;;;;34.62;48.73;100128.87;1700575;82;20549;-80
2021/07/09 11:34:05;;;;;;;;;;;;;;;34.64;48.86;100127.98;1705554;82;20170;-77
2021/07/09 11:36:48;;;;;;;;;;;;;;;34.75;49.15;100124.41;1709551;82;21270;-79
2021/07/09 11:39:19;;;;;;;;;;;;;;;34.74;48.54;100119.21;1712474;82;20163;-79
2021/07/09 11:41:57;;;;;;;;;;;;;;;34.80;47.65;100112.48;1704945;82;20145;-79
2021/07/09 11:44:32;;;;;;;;;;;;;;;34.77;47.35;100109.80;1691198;83;20147;-78
2021/07/09 11:47:00;;;;;;;;;;;;;;;34.87;46.91;100110.08;1699388;83;20434;-78
2021/07/09 11:49:29;;;;;;;;;;;;;;;34.90;46.63;100109.44;1703372;82;21309;-81
2021/07/09 11:51:57;;;;;;;;;;;;;;;35.06;45.54;100112.50;1702542;82;20151;-80
2021/07/09 11:54:24;;;;;;;;;;;;;;;35.04;46.30;100118.31;1706770;82;20134;-78
2021/07/09 11:56:51;;;;;;;;;;;;;;;35.06;46.15;100107.02;1706557;82;20161;-80
2021/07/09 11:59:18;;;;;;;;;;;;;;;35.18;45.85;100108.55;1701782;82;20253;-79
2021/07/09 12:02:04;;;;;;;;;;;;;;;35.22;45.61;100103.21;1708546;82;21128;-79
2021/07/09 12:04:31;;;;;;;;;;;;;;;35.29;45.43;100110.44;1712979;82;20229;-79
2021/07/09 12:07:17;;;;;;;;;;;;;;;35.36;45.12;100097.04;1707694;82;20246;-77
2021/07/09 12:09:44;;;;;;;;;;;;;;;35.46;45.41;100096.43;1707934;82;21076;-78
2021/07/09 12:12:10;;;;;;;;;;;;;;;35.45;44.40;100101.70;1696807;82;20249;-78
2021/07/09 12:15:02;;;;;;;;;;;;;;;35.46;44.20;100101.92;1701105;83;21089;-80
2021/07/09 12:17:30;;;;;;;;;;;;;;;35.61;44.08;100102.79;1706935;82;20482;-78
2021/07/09 12:20:02;;;;;;;;;;;;;;;35.70;43.63;100103.58;1704886;82;20176;-78
2021/07/09 12:22:30;;;;;;;;;;;;;;;35.66;42.74;100098.52;1707858;82;20142;-77
2021/07/09 12:24:56;;;;;;;;;;;;;;;35.99;42.36;100103.45;1716079;82;20171;-78
2021/07/09 12:27:21;;;;;;;;;;;;;;;36.12;42.61;100095.54;1712807;82;21147;-77
2021/07/09 12:29:47;;;;;;;;;;;;;;;35.99;41.91;100092.45;1708230;82;20627;-80
2021/07/09 12:32:12;;;;;;;;;;;;;;;36.11;40.85;100088.45;1712658;82;20134;-79
2021/07/09 12:34:38;;;;;;;;;;;;;;;36.12;41.15;100090.04;1713688;82;20633;-79